sensor_id;sensor_type;location;lat;lon;timestamp;pressure;altitude;pressure_sealevel;temperature;humidity
63556;BME280;49700;48.072;7.800;2024-03-02T00:00:04;98323.63;;;5.16;nan
63556;BME280;49700;48.072;7.800;2024-03-02T00:02:44;98332.09;;;5.19;nan
63556;BME280;49700;48.072;7.800;2024-03-02T00:05:12;98321.56;;;5.21;nan
63556;BME280;49700;48.072;7.800;2024-03-02T00:07:40;98330.97;;;5.23;nan
63556;BME280;49700;48.072;7.800;2024-03-02T00:10:09;98329.31;;;5.22;nan
63556;BME280;49700;48.072;7.800;2024-03-02T00:12:38;98327.72;;;5.20;nan
63556;BME280;49700;48.072;7.800;2024-03-02T00:18:12;98323.81;;;5.13;nan
63556;BME280;49700;48.072;7.800;2024-03-02T00:20:39;98333.41;;;5.12;nan
63556;BME280;49700;48.072;7.800;2024-03-02T00:23:06;98332.75;;;5.08;nan
63556;BME280;49700;48.072;7.800;2024-03-02T00:25:47;98335.56;;;5.05;nan
63556;BME280;49700;48.072;7.800;2024-03-02T00:28:14;98336.66;;;5.01;nan
63556;BME280;49700;48.072;7.800;2024-03-02T00:33:16;98333.81;;;4.92;nan
63556;BME280;49700;48.072;7.800;2024-03-02T00:35:44;98333.25;;;4.86;nan
63556;BME280;49700;48.072;7.800;2024-03-02T00:38:09;98340.19;;;4.86;nan
63556;BME280;49700;48.072;7.800;2024-03-02T00:40:35;98337.59;;;4.86;nan
63556;BME280;49700;48.072;7.800;2024-03-02T00:43:02;98333.25;;;4.86;nan
63556;BME280;49700;48.072;7.800;2024-03-02T00:45:28;98328.13;;;4.85;nan
63556;BME280;49700;48.072;7.800;2024-03-02T00:47:54;98333.25;;;4.86;nan
63556;BME280;49700;48.072;7.800;2024-03-02T00:50:19;98331.56;;;4.85;nan
63556;BME280;49700;48.072;7.800;2024-03-02T00:52:46;98329.16;;;4.82;nan
63556;BME280;49700;48.072;7.800;2024-03-02T00:55:14;98327.56;;;4.80;nan
63556;BME280;49700;48.072;7.800;2024-03-02T00:57:39;98342.41;;;4.78;nan
63556;BME280;49700;48.072;7.800;2024-03-02T01:00:06;98326.72;;;4.79;nan
63556;BME280;49700;48.072;7.800;2024-03-02T01:02:35;98326.66;;;4.81;nan
63556;BME280;49700;48.072;7.800;2024-03-02T01:05:00;98328.41;;;4.80;nan
63556;BME280;49700;48.072;7.800;2024-03-02T01:07:26;98329.34;;;4.79;nan
63556;BME280;49700;48.072;7.800;2024-03-02T01:09:51;98331.84;;;4.81;nan
63556;BME280;49700;48.072;7.800;2024-03-02T01:12:17;98317.97;;;4.80;nan
63556;BME280;49700;48.072;7.800;2024-03-02T01:14:42;98333.16;;;4.74;nan
63556;BME280;49700;48.072;7.800;2024-03-02T01:17:07;98331.63;;;4.70;nan
63556;BME280;49700;48.072;7.800;2024-03-02T01:19:33;98336.31;;;4.64;nan
63556;BME280;49700;48.072;7.800;2024-03-02T01:21:58;98334.72;;;4.62;nan
63556;BME280;49700;48.072;7.800;2024-03-02T01:24:24;98339.19;;;4.60;nan
63556;BME280;49700;48.072;7.800;2024-03-02T01:26:49;98336.84;;;4.55;nan
63556;BME280;49700;48.072;7.800;2024-03-02T01:29:15;98336.09;;;4.53;nan
63556;BME280;49700;48.072;7.800;2024-03-02T01:31:41;98335.50;;;4.48;nan
63556;BME280;49700;48.072;7.800;2024-03-02T01:34:08;98332.19;;;4.46;nan
63556;BME280;49700;48.072;7.800;2024-03-02T01:36:33;98341.84;;;4.44;nan
63556;BME280;49700;48.072;7.800;2024-03-02T01:38:59;98337.47;;;4.44;nan
63556;BME280;49700;48.072;7.800;2024-03-02T01:41:24;98341.19;;;4.40;nan
63556;BME280;49700;48.072;7.800;2024-03-02T01:43:50;98340.50;;;4.37;nan
63556;BME280;49700;48.072;7.800;2024-03-02T01:46:15;98338.22;;;4.32;nan
63556;BME280;49700;48.072;7.800;2024-03-02T01:48:41;98337.53;;;4.29;nan
63556;BME280;49700;48.072;7.800;2024-03-02T01:51:06;98336.88;;;4.25;nan
63556;BME280;49700;48.072;7.800;2024-03-02T01:53:32;98332.69;;;4.22;nan
63556;BME280;49700;48.072;7.800;2024-03-02T01:55:58;98339.28;;;4.14;nan
63556;BME280;49700;48.072;7.800;2024-03-02T01:58:27;98337.09;;;4.06;nan
63556;BME280;49700;48.072;7.800;2024-03-02T02:00:53;98330.41;;;4.02;nan
63556;BME280;49700;48.072;7.800;2024-03-02T02:03:18;98321.78;;;4.02;nan
63556;BME280;49700;48.072;7.800;2024-03-02T02:05:44;98320.53;;;3.93;nan
63556;BME280;49700;48.072;7.800;2024-03-02T02:08:09;98319.97;;;3.88;nan
63556;BME280;49700;48.072;7.800;2024-03-02T02:10:36;98317.38;;;3.88;nan
63556;BME280;49700;48.072;7.800;2024-03-02T02:13:01;98314.88;;;3.86;nan
63556;BME280;49700;48.072;7.800;2024-03-02T02:15:29;98324.41;;;3.86;nan
63556;BME280;49700;48.072;7.800;2024-03-02T02:17:58;98315.72;;;3.87;nan
63556;BME280;49700;48.072;7.800;2024-03-02T02:20:24;98307.16;;;3.85;nan
63556;BME280;49700;48.072;7.800;2024-03-02T02:22:58;98302.22;;;3.80;nan
63556;BME280;49700;48.072;7.800;2024-03-02T02:25:24;98299.31;;;3.70;nan
63556;BME280;49700;48.072;7.800;2024-03-02T02:27:49;98300.41;;;3.66;nan
63556;BME280;49700;48.072;7.800;2024-03-02T02:30:19;98299.50;;;3.67;nan
63556;BME280;49700;48.072;7.800;2024-03-02T02:32:45;98289.94;;;3.68;nan
63556;BME280;49700;48.072;7.800;2024-03-02T02:35:10;98292.38;;;3.71;nan
63556;BME280;49700;48.072;7.800;2024-03-02T02:37:36;98289.66;;;3.72;nan
63556;BME280;49700;48.072;7.800;2024-03-02T02:40:02;98284.41;;;3.74;nan
63556;BME280;49700;48.072;7.800;2024-03-02T02:42:30;98285.66;;;3.67;nan
63556;BME280;49700;48.072;7.800;2024-03-02T02:44:55;98284.81;;;3.66;nan
63556;BME280;49700;48.072;7.800;2024-03-02T02:47:21;98272.78;;;3.65;nan
63556;BME280;49700;48.072;7.800;2024-03-02T02:49:46;98270.19;;;3.65;nan
63556;BME280;49700;48.072;7.800;2024-03-02T02:52:12;98276.22;;;3.66;nan
63556;BME280;49700;48.072;7.800;2024-03-02T02:54:37;98272.84;;;3.64;nan
63556;BME280;49700;48.072;7.800;2024-03-02T02:57:03;98270.50;;;3.59;nan
63556;BME280;49700;48.072;7.800;2024-03-02T02:59:28;98264.66;;;3.55;nan
63556;BME280;49700;48.072;7.800;2024-03-02T03:01:54;98264.66;;;3.55;nan
63556;BME280;49700;48.072;7.800;2024-03-02T03:04:19;98276.75;;;3.57;nan
63556;BME280;49700;48.072;7.800;2024-03-02T03:06:45;98264.00;;;3.52;nan
63556;BME280;49700;48.072;7.800;2024-03-02T03:09:11;98260.66;;;3.50;nan
63556;BME280;49700;48.072;7.800;2024-03-02T03:11:36;98258.31;;;3.45;nan
63556;BME280;49700;48.072;7.800;2024-03-02T03:14:02;98257.66;;;3.42;nan
63556;BME280;49700;48.072;7.800;2024-03-02T03:16:28;98256.81;;;3.41;nan
63556;BME280;49700;48.072;7.800;2024-03-02T03:18:53;98261.00;;;3.44;nan
63556;BME280;49700;48.072;7.800;2024-03-02T03:21:19;98255.00;;;3.43;nan
63556;BME280;49700;48.072;7.800;2024-03-02T03:23:44;98259.19;;;3.46;nan
63556;BME280;49700;48.072;7.800;2024-03-02T03:26:10;98260.84;;;3.47;nan
63556;BME280;49700;48.072;7.800;2024-03-02T03:28:36;98255.66;;;3.47;nan
63556;BME280;49700;48.072;7.800;2024-03-02T03:31:01;98253.28;;;3.42;nan
63556;BME280;49700;48.072;7.800;2024-03-02T03:33:27;98259.66;;;3.37;nan
63556;BME280;49700;48.072;7.800;2024-03-02T03:35:52;98247.81;;;3.32;nan
63556;BME280;49700;48.072;7.800;2024-03-02T03:38:18;98249.63;;;3.30;nan
63556;BME280;49700;48.072;7.800;2024-03-02T03:40:44;98244.34;;;3.32;nan
63556;BME280;49700;48.072;7.800;2024-03-02T03:43:10;98251.31;;;3.31;nan
63556;BME280;49700;48.072;7.800;2024-03-02T03:45:35;98254.00;;;3.30;nan
63556;BME280;49700;48.072;7.800;2024-03-02T03:48:02;98253.16;;;3.29;nan
63556;BME280;49700;48.072;7.800;2024-03-02T03:50:27;98260.94;;;3.29;nan
63556;BME280;49700;48.072;7.800;2024-03-02T03:52:53;98259.25;;;3.28;nan
63556;BME280;49700;48.072;7.800;2024-03-02T03:55:18;98262.78;;;3.27;nan
63556;BME280;49700;48.072;7.800;2024-03-02T03:57:44;98267.22;;;3.25;nan
63556;BME280;49700;48.072;7.800;2024-03-02T04:00:09;98262.84;;;3.26;nan
63556;BME280;49700;48.072;7.800;2024-03-02T04:02:38;98263.22;;;3.20;nan
63556;BME280;49700;48.072;7.800;2024-03-02T04:05:04;98268.56;;;3.17;nan
63556;BME280;49700;48.072;7.800;2024-03-02T04:07:35;98272.94;;;3.16;nan
63556;BME280;49700;48.072;7.800;2024-03-02T04:10:09;98269.47;;;3.16;nan
63556;BME280;49700;48.072;7.800;2024-03-02T04:12:38;98272.00;;;3.17;nan
63556;BME280;49700;48.072;7.800;2024-03-02T04:15:05;98275.41;;;3.18;nan
63556;BME280;49700;48.072;7.800;2024-03-02T04:17:32;98280.59;;;3.18;nan
63556;BME280;49700;48.072;7.800;2024-03-02T04:19:58;98272.75;;;3.19;nan
63556;BME280;49700;48.072;7.800;2024-03-02T04:22:24;98275.25;;;3.21;nan
63556;BME280;49700;48.072;7.800;2024-03-02T04:24:49;98275.34;;;3.19;nan
63556;BME280;49700;48.072;7.800;2024-03-02T04:27:14;98273.06;;;3.13;nan
63556;BME280;49700;48.072;7.800;2024-03-02T04:29:40;98280.28;;;3.08;nan
63556;BME280;49700;48.072;7.800;2024-03-02T04:32:05;98284.63;;;3.07;nan
63556;BME280;49700;48.072;7.800;2024-03-02T04:34:31;98284.63;;;3.07;nan
63556;BME280;49700;48.072;7.800;2024-03-02T04:36:56;98293.41;;;3.05;nan
63556;BME280;49700;48.072;7.800;2024-03-02T04:39:21;98287.31;;;3.06;nan
63556;BME280;49700;48.072;7.800;2024-03-02T04:41:47;98293.16;;;3.09;nan
63556;BME280;49700;48.072;7.800;2024-03-02T04:44:13;98286.03;;;3.13;nan
63556;BME280;49700;48.072;7.800;2024-03-02T04:46:38;98291.34;;;3.12;nan
63556;BME280;49700;48.072;7.800;2024-03-02T04:49:03;98293.81;;;3.13;nan
63556;BME280;49700;48.072;7.800;2024-03-02T04:51:29;98297.28;;;3.14;nan
63556;BME280;49700;48.072;7.800;2024-03-02T04:53:54;98288.75;;;3.12;nan
63556;BME280;49700;48.072;7.800;2024-03-02T04:56:20;98292.16;;;3.12;nan
63556;BME280;49700;48.072;7.800;2024-03-02T04:58:48;98281.84;;;3.10;nan
63556;BME280;49700;48.072;7.800;2024-03-02T05:01:13;98289.81;;;3.07;nan
63556;BME280;49700;48.072;7.800;2024-03-02T05:03:38;98291.34;;;3.12;nan
63556;BME280;49700;48.072;7.800;2024-03-02T05:06:04;98279.94;;;3.14;nan
63556;BME280;49700;48.072;7.800;2024-03-02T05:08:29;98284.78;;;3.20;nan
63556;BME280;49700;48.072;7.800;2024-03-02T05:10:55;98284.72;;;3.22;nan
63556;BME280;49700;48.072;7.800;2024-03-02T05:13:20;98288.31;;;3.19;nan
63556;BME280;49700;48.072;7.800;2024-03-02T05:15:46;98290.81;;;3.21;nan
63556;BME280;49700;48.072;7.800;2024-03-02T05:18:11;98292.41;;;3.23;nan
63556;BME280;49700;48.072;7.800;2024-03-02T05:20:37;98288.91;;;3.24;nan
63556;BME280;49700;48.072;7.800;2024-03-02T05:23:02;98292.34;;;3.25;nan
63556;BME280;49700;48.072;7.800;2024-03-02T05:25:28;98285.38;;;3.25;nan
63556;BME280;49700;48.072;7.800;2024-03-02T05:27:53;98281.13;;;3.24;nan
63556;BME280;49700;48.072;7.800;2024-03-02T05:30:19;98288.97;;;3.23;nan
63556;BME280;49700;48.072;7.800;2024-03-02T05:32:44;98284.63;;;3.23;nan
63556;BME280;49700;48.072;7.800;2024-03-02T05:35:10;98295.00;;;3.23;nan
63556;BME280;49700;48.072;7.800;2024-03-02T05:37:37;98292.34;;;3.25;nan
63556;BME280;49700;48.072;7.800;2024-03-02T05:40:04;98294.84;;;3.26;nan
63556;BME280;49700;48.072;7.800;2024-03-02T05:42:30;98293.00;;;3.28;nan
63556;BME280;49700;48.072;7.800;2024-03-02T05:44:56;98294.59;;;3.31;nan
63556;BME280;49700;48.072;7.800;2024-03-02T05:47:21;98294.41;;;3.34;nan
63556;BME280;49700;48.072;7.800;2024-03-02T05:49:46;98296.41;;;3.45;nan
63556;BME280;49700;48.072;7.800;2024-03-02T05:52:12;98295.91;;;3.54;nan
63556;BME280;49700;48.072;7.800;2024-03-02T05:54:37;98284.44;;;3.58;nan
63556;BME280;49700;48.072;7.800;2024-03-02T05:57:03;98283.41;;;3.61;nan
63556;BME280;49700;48.072;7.800;2024-03-02T05:59:42;98295.22;;;3.66;nan
63556;BME280;49700;48.072;7.800;2024-03-02T06:02:08;98286.66;;;3.64;nan
63556;BME280;49700;48.072;7.800;2024-03-02T06:04:34;98290.59;;;3.71;nan
63556;BME280;49700;48.072;7.800;2024-03-02T06:06:59;98292.84;;;3.77;nan
63556;BME280;49700;48.072;7.800;2024-03-02T06:09:25;98279.34;;;3.87;nan
63556;BME280;49700;48.072;7.800;2024-03-02T06:11:51;98277.47;;;3.89;nan
63556;BME280;49700;48.072;7.800;2024-03-02T06:14:16;98290.47;;;3.89;nan
63556;BME280;49700;48.072;7.800;2024-03-02T06:16:42;98283.72;;;3.86;nan
63556;BME280;49700;48.072;7.800;2024-03-02T06:19:07;98282.94;;;3.84;nan
63556;BME280;49700;48.072;7.800;2024-03-02T06:21:33;98273.31;;;3.86;nan
63556;BME280;49700;48.072;7.800;2024-03-02T06:23:58;98278.16;;;3.92;nan
63556;BME280;49700;48.072;7.800;2024-03-02T06:26:24;98276.97;;;3.98;nan
63556;BME280;49700;48.072;7.800;2024-03-02T06:28:49;98269.56;;;4.06;nan
63556;BME280;49700;48.072;7.800;2024-03-02T06:31:14;98264.75;;;4.14;nan
63556;BME280;49700;48.072;7.800;2024-03-02T06:33:40;98271.16;;;4.23;nan
63556;BME280;49700;48.072;7.800;2024-03-02T06:36:06;98273.22;;;4.32;nan
63556;BME280;49700;48.072;7.800;2024-03-02T06:38:37;98269.22;;;4.41;nan
63556;BME280;49700;48.072;7.800;2024-03-02T06:41:02;98272.84;;;4.38;nan
63556;BME280;49700;48.072;7.800;2024-03-02T06:43:28;98272.94;;;4.37;nan
63556;BME280;49700;48.072;7.800;2024-03-02T06:45:53;98269.22;;;4.41;nan
63556;BME280;49700;48.072;7.800;2024-03-02T06:48:19;98273.69;;;4.39;nan
63556;BME280;49700;48.072;7.800;2024-03-02T06:50:49;98279.25;;;4.33;nan
63556;BME280;49700;48.072;7.800;2024-03-02T06:53:14;98281.66;;;4.36;nan
63556;BME280;49700;48.072;7.800;2024-03-02T06:55:43;98270.06;;;4.41;nan
63556;BME280;49700;48.072;7.800;2024-03-02T06:58:10;98273.13;;;4.48;nan
63556;BME280;49700;48.072;7.800;2024-03-02T07:00:36;98276.00;;;4.58;nan
63556;BME280;49700;48.072;7.800;2024-03-02T07:03:01;98276.50;;;4.64;nan
63556;BME280;49700;48.072;7.800;2024-03-02T07:05:27;98273.59;;;4.69;nan
63556;BME280;49700;48.072;7.800;2024-03-02T07:07:53;98268.13;;;4.74;nan
63556;BME280;49700;48.072;7.800;2024-03-02T07:10:18;98266.06;;;4.79;nan
63556;BME280;49700;48.072;7.800;2024-03-02T07:12:43;98266.81;;;4.81;nan
63556;BME280;49700;48.072;7.800;2024-03-02T07:15:10;98273.41;;;4.86;nan
63556;BME280;49700;48.072;7.800;2024-03-02T07:17:53;98265.13;;;4.94;nan
63556;BME280;49700;48.072;7.800;2024-03-02T07:20:19;98262.78;;;5.04;nan
63556;BME280;49700;48.072;7.800;2024-03-02T07:22:44;98265.66;;;5.14;nan
63556;BME280;49700;48.072;7.800;2024-03-02T07:25:10;98266.00;;;5.22;nan
63556;BME280;49700;48.072;7.800;2024-03-02T07:27:35;98262.81;;;5.31;nan
63556;BME280;49700;48.072;7.800;2024-03-02T07:30:02;98262.94;;;5.42;nan
63556;BME280;49700;48.072;7.800;2024-03-02T07:32:27;98264.78;;;5.54;nan
63556;BME280;49700;48.072;7.800;2024-03-02T07:34:53;98264.81;;;5.67;nan
63556;BME280;49700;48.072;7.800;2024-03-02T07:37:18;98262.22;;;5.80;nan
63556;BME280;49700;48.072;7.800;2024-03-02T07:39:44;98259.78;;;5.91;nan
63556;BME280;49700;48.072;7.800;2024-03-02T07:42:10;98256.38;;;6.04;nan
63556;BME280;49700;48.072;7.800;2024-03-02T07:44:35;98255.56;;;6.16;nan
63556;BME280;49700;48.072;7.800;2024-03-02T07:47:01;98258.47;;;6.24;nan
63556;BME280;49700;48.072;7.800;2024-03-02T07:49:26;98249.06;;;6.34;nan
63556;BME280;49700;48.072;7.800;2024-03-02T07:51:52;98251.06;;;6.43;nan
63556;BME280;49700;48.072;7.800;2024-03-02T07:54:17;98253.88;;;6.53;nan
63556;BME280;49700;48.072;7.800;2024-03-02T07:56:43;98249.81;;;6.62;nan
63556;BME280;49700;48.072;7.800;2024-03-02T07:59:08;98240.38;;;6.72;nan
63556;BME280;49700;48.072;7.800;2024-03-02T08:01:34;98250.19;;;6.81;nan
63556;BME280;49700;48.072;7.800;2024-03-02T08:04:00;98243.72;;;6.87;nan
63556;BME280;49700;48.072;7.800;2024-03-02T08:06:27;98245.56;;;6.98;nan
63556;BME280;49700;48.072;7.800;2024-03-02T08:09:00;98241.59;;;7.05;nan
63556;BME280;49700;48.072;7.800;2024-03-02T08:11:26;98246.25;;;7.13;nan
63556;BME280;49700;48.072;7.800;2024-03-02T08:13:56;98246.75;;;7.18;nan
63556;BME280;49700;48.072;7.800;2024-03-02T08:16:24;98241.94;;;7.24;nan
63556;BME280;49700;48.072;7.800;2024-03-02T08:18:50;98233.56;;;7.32;nan
63556;BME280;49700;48.072;7.800;2024-03-02T08:21:16;98238.09;;;7.41;nan
63556;BME280;49700;48.072;7.800;2024-03-02T08:23:42;98244.09;;;7.54;nan
63556;BME280;49700;48.072;7.800;2024-03-02T08:26:08;98242.84;;;7.71;nan
63556;BME280;49700;48.072;7.800;2024-03-02T08:28:34;98232.03;;;8.00;nan
63556;BME280;49700;48.072;7.800;2024-03-02T08:31:00;98235.56;;;8.79;nan
63556;BME280;49700;48.072;7.800;2024-03-02T08:33:25;98222.41;;;9.89;nan
63556;BME280;49700;48.072;7.800;2024-03-02T08:35:51;98223.69;;;11.07;nan
63556;BME280;49700;48.072;7.800;2024-03-02T08:38:16;98226.75;;;12.29;nan
63556;BME280;49700;48.072;7.800;2024-03-02T08:40:42;98211.78;;;13.22;nan
63556;BME280;49700;48.072;7.800;2024-03-02T08:43:07;98220.88;;;13.91;nan
63556;BME280;49700;48.072;7.800;2024-03-02T08:47:59;98212.41;;;15.51;nan
63556;BME280;49700;48.072;7.800;2024-03-02T08:50:25;98208.16;;;16.24;nan
63556;BME280;49700;48.072;7.800;2024-03-02T08:52:50;98207.34;;;16.71;nan
63556;BME280;49700;48.072;7.800;2024-03-02T08:55:16;98203.34;;;17.22;nan
63556;BME280;49700;48.072;7.800;2024-03-02T08:57:41;98201.69;;;17.76;nan
63556;BME280;49700;48.072;7.800;2024-03-02T09:00:07;98194.13;;;18.25;nan
63556;BME280;49700;48.072;7.800;2024-03-02T09:02:34;98192.78;;;18.74;nan
63556;BME280;49700;48.072;7.800;2024-03-02T09:04:59;98190.91;;;19.19;nan
63556;BME280;49700;48.072;7.800;2024-03-02T09:07:25;98196.44;;;19.75;nan
63556;BME280;49700;48.072;7.800;2024-03-02T09:09:50;98199.25;;;20.17;nan
63556;BME280;49700;48.072;7.800;2024-03-02T09:12:18;98189.75;;;20.07;nan
63556;BME280;49700;48.072;7.800;2024-03-02T09:14:44;98191.53;;;20.00;nan
63556;BME280;49700;48.072;7.800;2024-03-02T09:17:09;98191.78;;;20.05;nan
63556;BME280;49700;48.072;7.800;2024-03-02T09:19:36;98200.22;;;20.37;nan
63556;BME280;49700;48.072;7.800;2024-03-02T09:22:02;98196.09;;;20.63;nan
63556;BME280;49700;48.072;7.800;2024-03-02T09:24:28;98186.59;;;20.88;nan
63556;BME280;49700;48.072;7.800;2024-03-02T09:26:54;98178.19;;;20.91;nan
63556;BME280;49700;48.072;7.800;2024-03-02T09:29:19;98180.69;;;20.99;nan
63556;BME280;49700;48.072;7.800;2024-03-02T09:31:46;98176.22;;;21.13;nan
63556;BME280;49700;48.072;7.800;2024-03-02T09:34:12;98176.44;;;21.18;nan
63556;BME280;49700;48.072;7.800;2024-03-02T09:36:37;98171.88;;;21.06;nan
63556;BME280;49700;48.072;7.800;2024-03-02T09:39:03;98175.09;;;20.88;nan
63556;BME280;49700;48.072;7.800;2024-03-02T09:41:29;98173.28;;;20.60;nan
63556;BME280;49700;48.072;7.800;2024-03-02T09:43:55;98175.72;;;20.20;nan
63556;BME280;49700;48.072;7.800;2024-03-02T09:46:20;98169.38;;;19.72;nan
63556;BME280;49700;48.072;7.800;2024-03-02T09:48:46;98169.09;;;19.45;nan
63556;BME280;49700;48.072;7.800;2024-03-02T09:51:11;98163.47;;;19.18;nan
63556;BME280;49700;48.072;7.800;2024-03-02T09:53:37;98163.53;;;18.89;nan
63556;BME280;49700;48.072;7.800;2024-03-02T09:56:03;98157.94;;;18.54;nan
63556;BME280;49700;48.072;7.800;2024-03-02T09:58:30;98156.00;;;18.18;nan
63556;BME280;49700;48.072;7.800;2024-03-02T10:00:56;98159.38;;;17.97;nan
63556;BME280;49700;48.072;7.800;2024-03-02T10:03:24;98157.31;;;17.84;nan
63556;BME280;49700;48.072;7.800;2024-03-02T10:05:50;98157.44;;;17.45;nan
63556;BME280;49700;48.072;7.800;2024-03-02T10:08:15;98155.41;;;17.24;nan
63556;BME280;49700;48.072;7.800;2024-03-02T10:10:41;98158.44;;;17.21;nan
63556;BME280;49700;48.072;7.800;2024-03-02T10:13:10;98153.44;;;17.26;nan
63556;BME280;49700;48.072;7.800;2024-03-02T10:15:37;98149.03;;;17.33;nan
63556;BME280;49700;48.072;7.800;2024-03-02T10:18:04;98147.03;;;17.35;nan
63556;BME280;49700;48.072;7.800;2024-03-02T10:20:29;98142.50;;;17.21;nan
63556;BME280;49700;48.072;7.800;2024-03-02T10:22:56;98143.84;;;16.94;nan
63556;BME280;49700;48.072;7.800;2024-03-02T10:25:31;98135.41;;;16.82;nan
63556;BME280;49700;48.072;7.800;2024-03-02T10:27:58;98131.09;;;16.89;nan
63556;BME280;49700;48.072;7.800;2024-03-02T10:30:26;98135.88;;;16.94;nan
63556;BME280;49700;48.072;7.800;2024-03-02T10:32:53;98137.66;;;17.01;nan
63556;BME280;49700;48.072;7.800;2024-03-02T10:35:20;98140.78;;;17.05;nan
63556;BME280;49700;48.072;7.800;2024-03-02T10:37:47;98129.81;;;17.08;nan
63556;BME280;49700;48.072;7.800;2024-03-02T10:40:14;98129.00;;;17.08;nan
63556;BME280;49700;48.072;7.800;2024-03-02T10:42:41;98131.81;;;17.06;nan
63556;BME280;49700;48.072;7.800;2024-03-02T10:45:09;98129.81;;;17.08;nan
63556;BME280;49700;48.072;7.800;2024-03-02T10:47:37;98132.69;;;16.98;nan
63556;BME280;49700;48.072;7.800;2024-03-02T10:50:04;98126.25;;;16.93;nan
63556;BME280;49700;48.072;7.800;2024-03-02T10:52:37;98114.00;;;16.92;nan
63556;BME280;49700;48.072;7.800;2024-03-02T10:55:03;98115.56;;;16.78;nan
63556;BME280;49700;48.072;7.800;2024-03-02T10:57:41;98110.94;;;16.72;nan
63556;BME280;49700;48.072;7.800;2024-03-02T11:00:08;98122.50;;;16.79;nan
63556;BME280;49700;48.072;7.800;2024-03-02T11:02:42;98117.66;;;16.91;nan
63556;BME280;49700;48.072;7.800;2024-03-02T11:05:16;98109.69;;;16.91;nan
63556;BME280;49700;48.072;7.800;2024-03-02T11:07:46;98116.75;;;16.98;nan
63556;BME280;49700;48.072;7.800;2024-03-02T11:10:12;98108.78;;;17.07;nan
63556;BME280;49700;48.072;7.800;2024-03-02T11:12:48;98105.22;;;17.14;nan
63556;BME280;49700;48.072;7.800;2024-03-02T11:15:18;98113.31;;;17.21;nan
63556;BME280;49700;48.072;7.800;2024-03-02T11:17:47;98107.06;;;17.14;nan
63556;BME280;49700;48.072;7.800;2024-03-02T11:20:13;98098.44;;;17.12;nan
63556;BME280;49700;48.072;7.800;2024-03-02T11:22:40;98096.50;;;17.06;nan
63556;BME280;49700;48.072;7.800;2024-03-02T11:25:22;98097.22;;;16.99;nan
63556;BME280;49700;48.072;7.800;2024-03-02T11:33:04;98085.41;;;17.25;nan
63556;BME280;49700;48.072;7.800;2024-03-02T11:35:45;98082.91;;;17.32;nan
63556;BME280;49700;48.072;7.800;2024-03-02T11:38:14;98075.75;;;17.32;nan
63556;BME280;49700;48.072;7.800;2024-03-02T11:40:40;98076.81;;;17.23;nan
63556;BME280;49700;48.072;7.800;2024-03-02T11:43:06;98075.69;;;17.17;nan
63556;BME280;49700;48.072;7.800;2024-03-02T11:45:31;98067.56;;;17.19;nan
63556;BME280;49700;48.072;7.800;2024-03-02T11:47:59;98059.88;;;17.24;nan
63556;BME280;49700;48.072;7.800;2024-03-02T11:50:42;98064.84;;;17.27;nan
63556;BME280;49700;48.072;7.800;2024-03-02T11:53:10;98053.88;;;17.30;nan
63556;BME280;49700;48.072;7.800;2024-03-02T11:55:36;98050.75;;;17.27;nan
63556;BME280;49700;48.072;7.800;2024-03-02T11:58:05;98042.72;;;17.35;nan
63556;BME280;49700;48.072;7.800;2024-03-02T12:00:31;98037.78;;;17.46;nan
63556;BME280;49700;48.072;7.800;2024-03-02T12:03:07;98040.56;;;17.53;nan
63556;BME280;49700;48.072;7.800;2024-03-02T12:05:34;98031.88;;;17.59;nan
63556;BME280;49700;48.072;7.800;2024-03-02T12:08:05;98031.78;;;17.67;nan
63556;BME280;49700;48.072;7.800;2024-03-02T12:10:32;98029.59;;;17.71;nan
63556;BME280;49700;48.072;7.800;2024-03-02T12:12:59;98024.56;;;17.76;nan
63556;BME280;49700;48.072;7.800;2024-03-02T12:15:29;98023.66;;;17.69;nan
63556;BME280;49700;48.072;7.800;2024-03-02T12:17:55;98022.19;;;17.66;nan
63556;BME280;49700;48.072;7.800;2024-03-02T12:20:23;98023.09;;;17.59;nan
63556;BME280;49700;48.072;7.800;2024-03-02T12:22:52;98020.88;;;17.47;nan
63556;BME280;49700;48.072;7.800;2024-03-02T12:25:22;98013.09;;;17.46;nan
63556;BME280;49700;48.072;7.800;2024-03-02T12:27:50;98021.69;;;17.48;nan
63556;BME280;49700;48.072;7.800;2024-03-02T12:30:19;98004.75;;;17.49;nan
63556;BME280;49700;48.072;7.800;2024-03-02T12:32:45;98006.75;;;17.47;nan
63556;BME280;49700;48.072;7.800;2024-03-02T12:35:11;98002.00;;;17.42;nan
63556;BME280;49700;48.072;7.800;2024-03-02T12:37:47;98001.28;;;17.48;nan
63556;BME280;49700;48.072;7.800;2024-03-02T12:40:13;98000.19;;;17.58;nan
63556;BME280;49700;48.072;7.800;2024-03-02T12:42:40;98000.09;;;17.66;nan
63556;BME280;49700;48.072;7.800;2024-03-02T12:45:08;97995.34;;;17.76;nan
63556;BME280;49700;48.072;7.800;2024-03-02T12:47:34;97991.06;;;17.75;nan
63556;BME280;49700;48.072;7.800;2024-03-02T12:50:00;97989.69;;;17.79;nan
63556;BME280;49700;48.072;7.800;2024-03-02T12:52:26;97984.03;;;17.82;nan
63556;BME280;49700;48.072;7.800;2024-03-02T12:54:52;97980.00;;;17.86;nan
63556;BME280;49700;48.072;7.800;2024-03-02T12:57:21;97973.66;;;17.87;nan
63556;BME280;49700;48.072;7.800;2024-03-02T12:59:47;97975.50;;;17.87;nan
63556;BME280;49700;48.072;7.800;2024-03-02T13:02:19;97978.16;;;17.87;nan
63556;BME280;49700;48.072;7.800;2024-03-02T13:04:52;97970.78;;;17.82;nan
63556;BME280;49700;48.072;7.800;2024-03-02T13:07:20;97971.97;;;17.80;nan
63556;BME280;49700;48.072;7.800;2024-03-02T13:09:48;97964.13;;;17.78;nan
63556;BME280;49700;48.072;7.800;2024-03-02T13:12:15;97962.16;;;17.80;nan
63556;BME280;49700;48.072;7.800;2024-03-02T13:14:41;97964.00;;;17.80;nan
63556;BME280;49700;48.072;7.800;2024-03-02T13:17:08;97952.69;;;17.78;nan
63556;BME280;49700;48.072;7.800;2024-03-02T13:19:34;97956.69;;;17.74;nan
63556;BME280;49700;48.072;7.800;2024-03-02T13:21:59;97946.00;;;17.67;nan
63556;BME280;49700;48.072;7.800;2024-03-02T13:24:27;97952.88;;;17.61;nan
63556;BME280;49700;48.072;7.800;2024-03-02T13:26:54;97954.22;;;17.57;nan
63556;BME280;49700;48.072;7.800;2024-03-02T13:29:22;97943.97;;;17.54;nan
63556;BME280;49700;48.072;7.800;2024-03-02T13:31:47;97948.09;;;17.57;nan
63556;BME280;49700;48.072;7.800;2024-03-02T13:34:13;97948.75;;;17.59;nan
63556;BME280;49700;48.072;7.800;2024-03-02T13:36:39;97943.06;;;17.62;nan
63556;BME280;49700;48.072;7.800;2024-03-02T13:39:04;97953.03;;;17.60;nan